Time;durP1;ratioP1;P1;durP2;ratioP2;P2;SDS_P1;SDS_P2;PMS_P1;PMS_P2;Temp;Humidity;BMP_temperature;BMP_pressure;BME280_temperature;BME280_humidity;BME280_pressure;Samples;Min_cycle;Max_cycle;Signal;HPM_P1;HPM_P2
2023/07/31 00:00:39;;;;;;;;;;;;;;;;;;6182020;23;19930;-86
2023/07/31 00:03:05;;;;;;;;;;;;;;;;;;6181036;23;19915;-89
2023/07/31 00:05:37;;;;;;;;;;;;;;;;;;6182167;23;19923;-89
2023/07/31 00:08:05;;;;;;;;;;;;;;;;;;6179240;23;19919;-89
2023/07/31 00:10:34;;;;;;;;;;;;;;;;;;6179424;23;19969;-89
2023/07/31 00:13:03;;;;;;;;;;;;;;;;;;6206626;23;19927;-88
2023/07/31 00:15:29;;;;;;;;;;;;;;;;;;6179281;23;20089;-88
2023/07/31 00:18:00;;;;;;;;;;;;;;;;;;6181513;23;19919;-88
2023/07/31 00:20:29;;;;;;;;;;;;;;;;;;6180114;23;20295;-89
2023/07/31 00:22:57;;;;;;;;;;;;;;;;;;6181953;23;19923;-88
2023/07/31 00:25:23;;;;;;;;;;;;;;;;;;6180024;23;19926;-87
2023/07/31 00:27:52;;;;;;;;;;;;;;;;;;6181071;23;20106;-88
2023/07/31 00:30:26;;;;;;;;;;;;;;;;;;6177329;23;19930;-88
2023/07/31 00:32:55;;;;;;;;;;;;;;;;;;6206414;23;20403;-88
2023/07/31 00:35:27;;;;;;;;;;;;;;;;;;6179710;23;20007;-88
2023/07/31 00:37:56;;;;;;;;;;;;;;;;;;6206964;23;19973;-88
2023/07/31 00:40:32;;;;;;;;;;;;;;;;;;6177879;23;20322;-88
2023/07/31 00:43:04;;;;;;;;;;;;;;;;;;6180992;23;19919;-87
2023/07/31 00:45:33;;;;;;;;;;;;;;;;;;6180670;23;20046;-88
2023/07/31 00:47:59;;;;;;;;;;;;;;;;;;6181055;23;19991;-87
2023/07/31 00:50:28;;;;;;;;;;;;;;;;;;6177971;23;20355;-88
2023/07/31 00:52:54;;;;;;;;;;;;;;;;;;6182767;23;19919;-88
2023/07/31 00:55:22;;;;;;;;;;;;;;;;;;6180091;23;19926;-89
2023/07/31 00:57:52;;;;;;;;;;;;;;;;;;6180145;23;19927;-89
2023/07/31 01:00:21;;;;;;;;;;;;;;;;;;6178798;23;19927;-88
2023/07/31 01:02:56;;;;;;;;;;;;;;;;;;6184086;23;19926;-87
2023/07/31 01:05:22;;;;;;;;;;;;;;;;;;6201012;23;19927;-89
2023/07/31 01:07:48;;;;;;;;;;;;;;;;;;6178952;23;19930;-88
2023/07/31 01:10:14;;;;;;;;;;;;;;;;;;6180535;23;19927;-88
2023/07/31 01:12:41;;;;;;;;;;;;;;;;;;6182065;23;19920;-88
2023/07/31 01:15:10;;;;;;;;;;;;;;;;;;6205365;23;19924;-88
2023/07/31 01:17:39;;;;;;;;;;;;;;;;;;6179647;23;19924;-89
2023/07/31 01:20:14;;;;;;;;;;;;;;;;;;6181275;23;19930;-87
2023/07/31 01:22:43;;;;;;;;;;;;;;;;;;6181113;23;20640;-88
2023/07/31 01:25:09;;;;;;;;;;;;;;;;;;6177076;23;20300;-88
2023/07/31 01:27:41;;;;;;;;;;;;;;;;;;6180258;23;19919;-88
2023/07/31 01:30:10;;;;;;;;;;;;;;;;;;6179546;23;19927;-87
2023/07/31 01:35:35;;;;;;;;;;;;;;;;;;6235145;22;19919;-88
2023/07/31 01:38:04;;;;;;;;;;;;;;;;;;6206358;23;19927;-87
2023/07/31 01:40:30;;;;;;;;;;;;;;;;;;6179518;23;20332;-88
2023/07/31 01:42:56;;;;;;;;;;;;;;;;;;6179510;23;20336;-88
2023/07/31 01:45:25;;;;;;;;;;;;;;;;;;6179062;23;19919;-87
2023/07/31 01:47:51;;;;;;;;;;;;;;;;;;6204681;23;19915;-88
2023/07/31 01:50:17;;;;;;;;;;;;;;;;;;6178240;23;19931;-89
2023/07/31 01:52:52;;;;;;;;;;;;;;;;;;6207833;23;20396;-88
2023/07/31 01:55:18;;;;;;;;;;;;;;;;;;6177809;23;19926;-88
2023/07/31 01:57:44;;;;;;;;;;;;;;;;;;6179757;23;20352;-88
2023/07/31 02:00:13;;;;;;;;;;;;;;;;;;6178379;23;19920;-89
2023/07/31 02:02:39;;;;;;;;;;;;;;;;;;6179952;23;20512;-88
2023/07/31 02:05:05;;;;;;;;;;;;;;;;;;6179463;23;19962;-87
2023/07/31 02:07:31;;;;;;;;;;;;;;;;;;6203783;23;19923;-87
2023/07/31 02:09:57;;;;;;;;;;;;;;;;;;6179723;23;19924;-87
2023/07/31 02:12:23;;;;;;;;;;;;;;;;;;6177234;23;19919;-87
2023/07/31 02:14:52;;;;;;;;;;;;;;;;;;6178549;23;19947;-87
2023/07/31 02:17:18;;;;;;;;;;;;;;;;;;6177295;23;20355;-87
2023/07/31 02:19:44;;;;;;;;;;;;;;;;;;6179606;23;20639;-87
2023/07/31 02:22:10;;;;;;;;;;;;;;;;;;6177041;23;19920;-87
2023/07/31 02:24:36;;;;;;;;;;;;;;;;;;6179836;23;19926;-87
2023/07/31 02:27:05;;;;;;;;;;;;;;;;;;6180594;23;19920;-87
2023/07/31 02:29:33;;;;;;;;;;;;;;;;;;6202320;23;20303;-88
2023/07/31 02:31:59;;;;;;;;;;;;;;;;;;6180469;23;19915;-88
2023/07/31 02:34:25;;;;;;;;;;;;;;;;;;6177199;23;19919;-88
2023/07/31 02:36:54;;;;;;;;;;;;;;;;;;6179713;23;19926;-88
2023/07/31 02:39:20;;;;;;;;;;;;;;;;;;6177871;23;20420;-89
2023/07/31 02:44:38;;;;;;;;;;;;;;;;;;6201957;23;20320;-88
2023/07/31 02:47:09;;;;;;;;;;;;;;;;;;6182040;23;20053;-89
2023/07/31 02:49:38;;;;;;;;;;;;;;;;;;6180808;23;19923;-89
2023/07/31 02:52:13;;;;;;;;;;;;;;;;;;6180295;23;19930;-89
2023/07/31 02:54:52;;;;;;;;;;;;;;;;;;6182551;23;19920;-89
2023/07/31 02:57:24;;;;;;;;;;;;;;;;;;6178984;23;20333;-88
2023/07/31 02:59:56;;;;;;;;;;;;;;;;;;6181196;23;20104;-88
2023/07/31 03:02:27;;;;;;;;;;;;;;;;;;6179851;23;19915;-89
2023/07/31 03:04:57;;;;;;;;;;;;;;;;;;6180772;23;19930;-88
2023/07/31 03:07:38;;;;;;;;;;;;;;;;;;6182392;23;19920;-89
2023/07/31 03:10:12;;;;;;;;;;;;;;;;;;6167670;23;20387;-89
2023/07/31 03:12:51;;;;;;;;;;;;;;;;;;;;;
2023/07/31 03:15:30;;;;;;;;;;;;;;;;;;6160609;23;19920;-90
2023/07/31 03:17:56;;;;;;;;;;;;;;;;;;6119451;23;20356;-89
2023/07/31 03:20:22;;;;;;;;;;;;;;;;;;6116375;23;19920;-88
2023/07/31 03:22:50;;;;;;;;;;;;;;;;;;6143117;23;19920;-89
2023/07/31 03:25:16;;;;;;;;;;;;;;;;;;6115694;23;20309;-88
2023/07/31 03:27:42;;;;;;;;;;;;;;;;;;6119519;23;19920;-87
2023/07/31 03:30:08;;;;;;;;;;;;;;;;;;6118484;23;19924;-86
2023/07/31 03:32:34;;;;;;;;;;;;;;;;;;6120267;23;19991;-88
2023/07/31 03:35:00;;;;;;;;;;;;;;;;;;6143268;23;19923;-88
2023/07/31 03:37:26;;;;;;;;;;;;;;;;;;6117654;23;19995;-88
2023/07/31 03:39:52;;;;;;;;;;;;;;;;;;6120120;23;19920;-87
2023/07/31 03:42:18;;;;;;;;;;;;;;;;;;6202499;23;19919;-89
2023/07/31 03:44:47;;;;;;;;;;;;;;;;;;6182198;23;19919;-89
2023/07/31 03:47:13;;;;;;;;;;;;;;;;;;6204389;23;19919;-89
2023/07/31 03:49:39;;;;;;;;;;;;;;;;;;6182333;23;20339;-89
2023/07/31 03:52:05;;;;;;;;;;;;;;;;;;6178901;23;19916;-89
2023/07/31 03:54:33;;;;;;;;;;;;;;;;;;6204488;23;19982;-88
2023/07/31 03:56:59;;;;;;;;;;;;;;;;;;6181984;23;19926;-89
2023/07/31 03:59:25;;;;;;;;;;;;;;;;;;6178372;23;20063;-89
2023/07/31 04:01:51;;;;;;;;;;;;;;;;;;6205802;23;19927;-89
2023/07/31 04:04:17;;;;;;;;;;;;;;;;;;6202775;23;19924;-89
2023/07/31 04:06:43;;;;;;;;;;;;;;;;;;6178261;23;19959;-89
2023/07/31 04:09:09;;;;;;;;;;;;;;;;;;6202446;23;19945;-89
2023/07/31 04:11:35;;;;;;;;;;;;;;;;;;6178720;23;19995;-89
2023/07/31 04:14:04;;;;;;;;;;;;;;;;;;6203147;23;19927;-90
2023/07/31 04:22:15;;;;;;;;;;;;;;;;;;6167825;23;19920;-89
2023/07/31 04:25:09;;;;;;;;;;;;;;;;;;;;;
2023/07/31 04:27:35;;;;;;;;;;;;;;;;;;6205060;23;19978;-88
2023/07/31 04:30:06;;;;;;;;;;;;;;;;;;6179457;23;19930;-89
2023/07/31 04:32:35;;;;;;;;;;;;;;;;;;6180407;23;19919;-87
2023/07/31 04:35:04;;;;;;;;;;;;;;;;;;6204575;23;19920;-88
2023/07/31 04:37:33;;;;;;;;;;;;;;;;;;6203048;23;19942;-87
2023/07/31 04:39:59;;;;;;;;;;;;;;;;;;6179029;23;20324;-88
2023/07/31 04:42:25;;;;;;;;;;;;;;;;;;6176849;23;19969;-87
2023/07/31 04:44:52;;;;;;;;;;;;;;;;;;6204610;23;19919;-88
2023/07/31 04:47:18;;;;;;;;;;;;;;;;;;6177637;23;19916;-88
2023/07/31 04:49:44;;;;;;;;;;;;;;;;;;6179788;23;20249;-88
2023/07/31 04:52:16;;;;;;;;;;;;;;;;;;6180337;23;19930;-88
2023/07/31 04:54:42;;;;;;;;;;;;;;;;;;6178176;23;19919;-88
2023/07/31 04:57:08;;;;;;;;;;;;;;;;;;6177800;23;19945;-88
2023/07/31 04:59:37;;;;;;;;;;;;;;;;;;6203866;23;19923;-89
2023/07/31 05:02:10;;;;;;;;;;;;;;;;;;6180006;23;19919;-89
2023/07/31 05:04:36;;;;;;;;;;;;;;;;;;6178929;23;20283;-88
2023/07/31 05:07:10;;;;;;;;;;;;;;;;;;6179419;23;19990;-88
2023/07/31 05:09:36;;;;;;;;;;;;;;;;;;6180721;23;19981;-88
2023/07/31 05:12:05;;;;;;;;;;;;;;;;;;6180163;23;19981;-88
2023/07/31 05:14:31;;;;;;;;;;;;;;;;;;6177372;23;19920;-87
2023/07/31 05:16:56;;;;;;;;;;;;;;;;;;6177491;23;19977;-88
2023/07/31 05:19:23;;;;;;;;;;;;;;;;;;6175685;23;20002;-89
2023/07/31 05:21:52;;;;;;;;;;;;;;;;;;6179348;23;20292;-89
2023/07/31 05:24:23;;;;;;;;;;;;;;;;;;6178300;23;19973;-89
2023/07/31 05:26:55;;;;;;;;;;;;;;;;;;6204230;23;19985;-89
2023/07/31 05:29:26;;;;;;;;;;;;;;;;;;6204332;23;20383;-89
2023/07/31 05:31:52;;;;;;;;;;;;;;;;;;6182060;23;19942;-88
2023/07/31 05:34:18;;;;;;;;;;;;;;;;;;6176448;23;19920;-90
2023/07/31 05:36:44;;;;;;;;;;;;;;;;;;6205272;23;19923;-89
2023/07/31 05:39:13;;;;;;;;;;;;;;;;;;6203755;23;20006;-89
2023/07/31 05:47:17;;;;;;;;;;;;;;;;;;6192597;23;19995;-91
2023/07/31 05:49:52;;;;;;;;;;;;;;;;;;6184019;23;19924;-90
2023/07/31 05:52:21;;;;;;;;;;;;;;;;;;6153787;23;19920;-89
2023/07/31 05:54:56;;;;;;;;;;;;;;;;;;6180277;23;20318;-89
2023/07/31 05:57:26;;;;;;;;;;;;;;;;;;6176616;23;19930;-89
2023/07/31 05:59:55;;;;;;;;;;;;;;;;;;6177727;23;19919;-90
2023/07/31 06:02:37;;;;;;;;;;;;;;;;;;;;;
2023/07/31 06:05:31;;;;;;;;;;;;;;;;;;6212967;23;19923;-89
2023/07/31 06:08:03;;;;;;;;;;;;;;;;;;6178514;23;19926;-91
2023/07/31 06:10:29;;;;;;;;;;;;;;;;;;6178038;23;19998;-89
2023/07/31 06:13:12;;;;;;;;;;;;;;;;;;6178396;23;19928;-90
2023/07/31 06:15:50;;;;;;;;;;;;;;;;;;6178237;23;19923;-89
2023/07/31 06:18:35;;;;;;;;;;;;;;;;;;6176965;23;19978;-90
2023/07/31 06:21:04;;;;;;;;;;;;;;;;;;6143049;23;19917;-90
2023/07/31 06:23:57;;;;;;;;;;;;;;;;;;;;;
2023/07/31 06:26:29;;;;;;;;;;;;;;;;;;6115478;23;20874;-91
2023/07/31 06:29:15;;;;;;;;;;;;;;;;;;6080954;23;19921;-90
2023/07/31 06:31:46;;;;;;;;;;;;;;;;;;6087033;23;20267;-90
2023/07/31 06:34:29;;;;;;;;;;;;;;;;;;6139453;23;19921;-88
2023/07/31 06:37:03;;;;;;;;;;;;;;;;;;6117732;23;19920;-89
2023/07/31 06:39:59;;;;;;;;;;;;;;;;;;6116652;23;20350;-90
2023/07/31 06:42:21;;;;;;;;;;;;;;;;;;6111242;23;19920;-89
2023/07/31 06:48:03;;;;;;;;;;;;;;;;;;;;;
2023/07/31 06:50:33;;;;;;;;;;;;;;;;;;6121432;23;19963;-90
2023/07/31 06:53:41;;;;;;;;;;;;;;;;;;6182590;23;20678;-89
2023/07/31 06:56:28;;;;;;;;;;;;;;;;;;6191180;23;19916;-90
2023/07/31 07:02:07;;;;;;;;;;;;;;;;;;6033721;23;20023;-90
2023/07/31 07:04:53;;;;;;;;;;;;;;;;;;;;;
2023/07/31 07:07:21;;;;;;;;;;;;;;;;;;6024875;23;19929;-90
2023/07/31 07:09:50;;;;;;;;;;;;;;;;;;6027827;23;19922;-90
2023/07/31 07:12:27;;;;;;;;;;;;;;;;;;6003928;23;19929;-89
2023/07/31 07:14:57;;;;;;;;;;;;;;;;;;5981877;23;20658;-89
2023/07/31 07:17:23;;;;;;;;;;;;;;;;;;6025958;23;20005;-88
2023/07/31 07:19:57;;;;;;;;;;;;;;;;;;5979635;23;19933;-89
2023/07/31 07:22:25;;;;;;;;;;;;;;;;;;6002181;23;20356;-90
2023/07/31 07:25:02;;;;;;;;;;;;;;;;;;6004322;23;19928;-90
2023/07/31 07:27:38;;;;;;;;;;;;;;;;;;6003290;23;19922;-90
2023/07/31 07:30:27;;;;;;;;;;;;;;;;;;6005118;23;19981;-90
2023/07/31 07:36:02;;;;;;;;;;;;;;;;;;;;;
2023/07/31 07:38:29;;;;;;;;;;;;;;;;;;6180756;23;20203;-90
2023/07/31 07:41:18;;;;;;;;;;;;;;;;;;6147912;23;20306;-90
2023/07/31 07:43:48;;;;;;;;;;;;;;;;;;6154174;23;19962;-90
2023/07/31 07:46:15;;;;;;;;;;;;;;;;;;6180944;23;20392;-90
2023/07/31 07:48:43;;;;;;;;;;;;;;;;;;6158372;23;19941;-90
2023/07/31 07:54:11;;;;;;;;;;;;;;;;;;6210247;23;19947;-90
2023/07/31 07:59:42;;;;;;;;;;;;;;;;;;6249838;23;19915;-90
2023/07/31 08:02:27;;;;;;;;;;;;;;;;;;6145927;23;20710;-91
2023/07/31 08:05:05;;;;;;;;;;;;;;;;;;6178436;23;20067;-90
2023/07/31 08:08:00;;;;;;;;;;;;;;;;;;6156652;23;19925;-90
2023/07/31 08:10:34;;;;;;;;;;;;;;;;;;6123874;23;19924;-91
2023/07/31 08:16:10;;;;;;;;;;;;;;;;;;6146727;23;19920;-91
2023/07/31 08:18:42;;;;;;;;;;;;;;;;;;6124860;23;19974;-90
2023/07/31 08:21:22;;;;;;;;;;;;;;;;;;6147830;23;19955;-90
2023/07/31 08:23:49;;;;;;;;;;;;;;;;;;6124951;23;19970;-90
2023/07/31 08:26:23;;;;;;;;;;;;;;;;;;6122469;23;20042;-90
2023/07/31 08:29:03;;;;;;;;;;;;;;;;;;6124040;23;19920;-90
2023/07/31 08:31:34;;;;;;;;;;;;;;;;;;6119060;23;20382;-90
2023/07/31 08:34:12;;;;;;;;;;;;;;;;;;6120735;23;20396;-90
2023/07/31 08:36:55;;;;;;;;;;;;;;;;;;6120721;23;19921;-90
2023/07/31 08:49:45;;;;;;;;;;;;;;;;;;;;;
2023/07/31 09:02:37;;;;;;;;;;;;;;;;;;5893696;24;19918;-91
2023/07/31 09:05:43;;;;;;;;;;;;;;;;;;;;;
2023/07/31 09:26:49;;;;;;;;;;;;;;;;;;;;;
2023/07/31 09:29:54;;;;;;;;;;;;;;;;;;5914603;24;20006;-89
2023/07/31 09:33:39;;;;;;;;;;;;;;;;;;5919752;24;19994;-88
2023/07/31 09:38:45;;;;;;;;;;;;;;;;;;5999186;23;19922;-89
2023/07/31 09:41:18;;;;;;;;;;;;;;;;;;5968654;24;20268;-88
2023/07/31 09:43:48;;;;;;;;;;;;;;;;;;5949840;24;20065;-88
2023/07/31 09:46:16;;;;;;;;;;;;;;;;;;6000236;23;20002;-88
2023/07/31 09:48:42;;;;;;;;;;;;;;;;;;6021529;23;19994;-88
2023/07/31 09:51:08;;;;;;;;;;;;;;;;;;6093991;23;19960;-89
2023/07/31 09:53:34;;;;;;;;;;;;;;;;;;6120275;23;19972;-89
2023/07/31 09:56:00;;;;;;;;;;;;;;;;;;6096528;23;20412;-90
2023/07/31 09:58:26;;;;;;;;;;;;;;;;;;6093603;23;20268;-89
2023/07/31 10:00:52;;;;;;;;;;;;;;;;;;6119995;23;19924;-89
2023/07/31 10:03:18;;;;;;;;;;;;;;;;;;6118117;23;20372;-89
2023/07/31 10:05:44;;;;;;;;;;;;;;;;;;6145259;23;20350;-90
2023/07/31 10:08:10;;;;;;;;;;;;;;;;;;6093074;23;20249;-89
2023/07/31 10:10:36;;;;;;;;;;;;;;;;;;6120219;23;19920;-90
2023/07/31 10:13:05;;;;;;;;;;;;;;;;;;6169219;23;20327;-88
2023/07/31 10:18:30;;;;;;;;;;;;;;;;;;6209629;23;19923;-90
2023/07/31 10:21:11;;;;;;;;;;;;;;;;;;6201343;23;20172;-90
2023/07/31 10:23:40;;;;;;;;;;;;;;;;;;6186964;23;19916;-90
2023/07/31 10:26:13;;;;;;;;;;;;;;;;;;6187179;23;19919;-90
2023/07/31 10:28:48;;;;;;;;;;;;;;;;;;6187541;23;19923;-90
2023/07/31 10:31:19;;;;;;;;;;;;;;;;;;6182949;23;19995;-89
2023/07/31 10:34:00;;;;;;;;;;;;;;;;;;6188317;23;19920;-89
2023/07/31 10:36:36;;;;;;;;;;;;;;;;;;6184395;23;20359;-90
2023/07/31 10:39:11;;;;;;;;;;;;;;;;;;6186858;23;19994;-90
2023/07/31 10:42:12;;;;;;;;;;;;;;;;;;6147558;23;20455;-89
2023/07/31 10:44:40;;;;;;;;;;;;;;;;;;6144193;23;20023;-90
2023/07/31 10:47:24;;;;;;;;;;;;;;;;;;6120760;23;20330;-90
2023/07/31 10:50:03;;;;;;;;;;;;;;;;;;;;;
2023/07/31 10:52:41;;;;;;;;;;;;;;;;;;6182316;23;19974;-89
2023/07/31 10:55:19;;;;;;;;;;;;;;;;;;6115812;23;19917;-90
2023/07/31 10:58:03;;;;;;;;;;;;;;;;;;6093132;23;19932;-91
2023/07/31 11:03:43;;;;;;;;;;;;;;;;;;6138787;23;19956;-90
2023/07/31 11:06:09;;;;;;;;;;;;;;;;;;6137291;23;19987;-89
2023/07/31 11:08:38;;;;;;;;;;;;;;;;;;6150197;23;19916;-90
2023/07/31 11:11:16;;;;;;;;;;;;;;;;;;6150581;23;20345;-90
2023/07/31 11:16:47;;;;;;;;;;;;;;;;;;6095492;23;20301;-89
2023/07/31 11:21:57;;;;;;;;;;;;;;;;;;6117631;23;19921;-89
2023/07/31 11:24:26;;;;;;;;;;;;;;;;;;6114186;23;20632;-88
2023/07/31 11:27:00;;;;;;;;;;;;;;;;;;6115160;23;20632;-88
2023/07/31 11:29:50;;;;;;;;;;;;;;;;;;6123159;23;19943;-89
2023/07/31 11:32:26;;;;;;;;;;;;;;;;;;6120176;23;20297;-89
2023/07/31 11:35:09;;;;;;;;;;;;;;;;;;6124773;23;19927;-88
2023/07/31 11:37:35;;;;;;;;;;;;;;;;;;6121836;23;20288;-87
2023/07/31 11:40:02;;;;;;;;;;;;;;;;;;6149802;23;19975;-88
2023/07/31 11:42:28;;;;;;;;;;;;;;;;;;6150476;23;20019;-87
2023/07/31 11:44:56;;;;;;;;;;;;;;;;;;6147364;23;19959;-88
2023/07/31 11:47:22;;;;;;;;;;;;;;;;;;6135376;23;20015;-88
2023/07/31 11:49:48;;;;;;;;;;;;;;;;;;6204012;23;19920;-89
2023/07/31 11:52:19;;;;;;;;;;;;;;;;;;6177659;23;20372;-90
2023/07/31 11:55:05;;;;;;;;;;;;;;;;;;6181338;23;20171;-90
2023/07/31 11:57:49;;;;;;;;;;;;;;;;;;6191476;23;19916;-90
2023/07/31 12:00:16;;;;;;;;;;;;;;;;;;6181796;23;19919;-89
2023/07/31 12:02:45;;;;;;;;;;;;;;;;;;6182667;23;19923;-90
2023/07/31 12:05:24;;;;;;;;;;;;;;;;;;6182308;23;19919;-90
2023/07/31 12:08:09;;;;;;;;;;;;;;;;;;6202919;23;19947;-90
2023/07/31 12:10:51;;;;;;;;;;;;;;;;;;6210434;23;19920;-89
2023/07/31 12:16:14;;;;;;;;;;;;;;;;;;6197162;23;20230;-89
2023/07/31 12:19:04;;;;;;;;;;;;;;;;;;6184689;23;20317;-89
2023/07/31 12:21:35;;;;;;;;;;;;;;;;;;6204711;23;19969;-88
2023/07/31 12:24:07;;;;;;;;;;;;;;;;;;6184556;23;19955;-88
2023/07/31 12:26:36;;;;;;;;;;;;;;;;;;6184155;23;20231;-88
2023/07/31 12:29:11;;;;;;;;;;;;;;;;;;6181435;23;19920;-89
2023/07/31 12:31:46;;;;;;;;;;;;;;;;;;6207364;23;19951;-89
2023/07/31 12:34:18;;;;;;;;;;;;;;;;;;6179713;23;20388;-87
2023/07/31 12:36:48;;;;;;;;;;;;;;;;;;6208318;23;19923;-88
2023/07/31 12:51:20;;;;;;;;;;;;;;;;;;;;;
2023/07/31 12:54:14;;;;;;;;;;;;;;;;;;;;;
2023/07/31 12:56:56;;;;;;;;;;;;;;;;;;6244759;23;19923;-91
2023/07/31 12:59:33;;;;;;;;;;;;;;;;;;6182354;23;19989;-90
2023/07/31 13:02:15;;;;;;;;;;;;;;;;;;;;;
2023/07/31 13:04:51;;;;;;;;;;;;;;;;;;6203024;23;19926;-90
2023/07/31 13:10:25;;;;;;;;;;;;;;;;;;6167856;23;19915;-90
2023/07/31 13:15:52;;;;;;;;;;;;;;;;;;6186480;23;20699;-90
2023/07/31 13:18:27;;;;;;;;;;;;;;;;;;6175256;23;19927;-90
2023/07/31 13:21:17;;;;;;;;;;;;;;;;;;6178452;23;20359;-90
2023/07/31 13:23:48;;;;;;;;;;;;;;;;;;6178505;23;19927;-90
2023/07/31 13:26:37;;;;;;;;;;;;;;;;;;6195755;23;19973;-90
2023/07/31 13:29:09;;;;;;;;;;;;;;;;;;6178762;23;20237;-91
2023/07/31 13:31:44;;;;;;;;;;;;;;;;;;6178595;23;19931;-90
2023/07/31 13:34:38;;;;;;;;;;;;;;;;;;6180668;23;20073;-90
2023/07/31 13:40:07;;;;;;;;;;;;;;;;;;6116769;23;19936;-90
2023/07/31 13:42:56;;;;;;;;;;;;;;;;;;6087456;23;19917;-90
2023/07/31 13:45:48;;;;;;;;;;;;;;;;;;6120447;23;19999;-89
2023/07/31 13:48:17;;;;;;;;;;;;;;;;;;6090262;23;19940;-91
2023/07/31 13:54:06;;;;;;;;;;;;;;;;;;6202201;23;19931;-90
2023/07/31 13:56:43;;;;;;;;;;;;;;;;;;6203620;23;19966;-89
2023/07/31 13:59:22;;;;;;;;;;;;;;;;;;;;;
2023/07/31 14:02:03;;;;;;;;;;;;;;;;;;6208072;23;19962;-89
2023/07/31 14:04:39;;;;;;;;;;;;;;;;;;6207121;23;19926;-89
2023/07/31 14:07:14;;;;;;;;;;;;;;;;;;6183071;23;19923;-89
2023/07/31 14:09:58;;;;;;;;;;;;;;;;;;6181533;23;20355;-89
2023/07/31 14:12:31;;;;;;;;;;;;;;;;;;6179241;23;19927;-89
2023/07/31 14:15:19;;;;;;;;;;;;;;;;;;6180748;23;19919;-89
2023/07/31 14:17:47;;;;;;;;;;;;;;;;;;6234370;23;19970;-88
2023/07/31 14:20:35;;;;;;;;;;;;;;;;;;6203485;23;20233;-89
2023/07/31 14:23:04;;;;;;;;;;;;;;;;;;6180417;23;19924;-88
2023/07/31 14:28:39;;;;;;;;;;;;;;;;;;6233503;23;19926;-89
2023/07/31 14:31:49;;;;;;;;;;;;;;;;;;;;;
2023/07/31 14:34:17;;;;;;;;;;;;;;;;;;6200088;23;20400;-89
2023/07/31 14:36:58;;;;;;;;;;;;;;;;;;6182982;23;19919;-90
2023/07/31 14:39:32;;;;;;;;;;;;;;;;;;6204682;23;20390;-90
2023/07/31 14:45:04;;;;;;;;;;;;;;;;;;6240888;23;19923;-89
2023/07/31 14:47:38;;;;;;;;;;;;;;;;;;6202816;23;19919;-88
2023/07/31 15:02:28;;;;;;;;;;;;;;;;;;6066889;23;19928;-90
2023/07/31 15:05:22;;;;;;;;;;;;;;;;;;6177676;23;20010;-89
2023/07/31 15:08:00;;;;;;;;;;;;;;;;;;6174831;23;19928;-90
2023/07/31 15:10:32;;;;;;;;;;;;;;;;;;6169740;23;19920;-89
2023/07/31 15:12:58;;;;;;;;;;;;;;;;;;6175420;23;20387;-87
2023/07/31 15:15:24;;;;;;;;;;;;;;;;;;6178801;23;19977;-87
2023/07/31 15:17:50;;;;;;;;;;;;;;;;;;6183943;23;19915;-86
2023/07/31 15:20:16;;;;;;;;;;;;;;;;;;6172374;23;19920;-85
2023/07/31 15:22:42;;;;;;;;;;;;;;;;;;6182372;23;20296;-84
2023/07/31 15:25:08;;;;;;;;;;;;;;;;;;6180293;23;19931;-87
2023/07/31 15:30:22;;;;;;;;;;;;;;;;;;6207161;22;19951;-81
2023/07/31 15:32:49;;;;;;;;;;;;;;;;;;6201060;23;19920;-81
2023/07/31 15:35:15;;;;;;;;;;;;;;;;;;6184107;23;19950;-81
2023/07/31 15:37:41;;;;;;;;;;;;;;;;;;6206716;23;19924;-81
2023/07/31 15:40:07;;;;;;;;;;;;;;;;;;6231810;23;19989;-82
2023/07/31 15:42:39;;;;;;;;;;;;;;;;;;6233068;23;19920;-81
2023/07/31 15:45:05;;;;;;;;;;;;;;;;;;6211342;23;19923;-81
2023/07/31 15:47:31;;;;;;;;;;;;;;;;;;6207171;23;20259;-84
2023/07/31 15:49:57;;;;;;;;;;;;;;;;;;6180773;23;20358;-83
2023/07/31 15:52:23;;;;;;;;;;;;;;;;;;6176704;23;20482;-84
2023/07/31 15:54:49;;;;;;;;;;;;;;;;;;6179565;23;20307;-83
2023/07/31 15:57:15;;;;;;;;;;;;;;;;;;6177273;23;19919;-83
2023/07/31 15:59:40;;;;;;;;;;;;;;;;;;6206245;23;19927;-84
2023/07/31 16:02:06;;;;;;;;;;;;;;;;;;6227071;23;19969;-82
2023/07/31 16:04:32;;;;;;;;;;;;;;;;;;6230894;23;19930;-83
2023/07/31 16:06:58;;;;;;;;;;;;;;;;;;6184516;23;20373;-83
2023/07/31 16:09:24;;;;;;;;;;;;;;;;;;6178045;23;19931;-83
2023/07/31 16:11:50;;;;;;;;;;;;;;;;;;6185471;23;19920;-83
2023/07/31 16:14:16;;;;;;;;;;;;;;;;;;6202642;23;20362;-84
2023/07/31 16:16:42;;;;;;;;;;;;;;;;;;6209564;23;20304;-83
2023/07/31 16:19:08;;;;;;;;;;;;;;;;;;6201990;23;20239;-83
2023/07/31 16:21:34;;;;;;;;;;;;;;;;;;6204015;23;19919;-83
2023/07/31 16:24:00;;;;;;;;;;;;;;;;;;6201947;23;19925;-83
2023/07/31 16:26:26;;;;;;;;;;;;;;;;;;6202194;23;19924;-83
2023/07/31 16:28:52;;;;;;;;;;;;;;;;;;6205122;23;19930;-84
2023/07/31 16:31:18;;;;;;;;;;;;;;;;;;6198822;23;19955;-83
2023/07/31 16:33:44;;;;;;;;;;;;;;;;;;6231130;23;19915;-83
2023/07/31 16:36:10;;;;;;;;;;;;;;;;;;6208228;23;20287;-83
2023/07/31 16:38:36;;;;;;;;;;;;;;;;;;6205360;23;19941;-83
2023/07/31 16:41:02;;;;;;;;;;;;;;;;;;6206452;23;19981;-83
2023/07/31 16:43:28;;;;;;;;;;;;;;;;;;6200547;23;19919;-83
2023/07/31 16:45:55;;;;;;;;;;;;;;;;;;6179907;23;19917;-83
2023/07/31 16:48:21;;;;;;;;;;;;;;;;;;6176302;23;19919;-83
2023/07/31 16:50:47;;;;;;;;;;;;;;;;;;6209652;23;19919;-83
2023/07/31 16:53:13;;;;;;;;;;;;;;;;;;6179294;23;19916;-83
2023/07/31 16:55:39;;;;;;;;;;;;;;;;;;6175759;23;19926;-83
2023/07/31 16:58:05;;;;;;;;;;;;;;;;;;6208681;23;19919;-83
2023/07/31 17:00:32;;;;;;;;;;;;;;;;;;6183374;23;19920;-83
2023/07/31 17:02:58;;;;;;;;;;;;;;;;;;6178934;23;20328;-83
2023/07/31 17:05:24;;;;;;;;;;;;;;;;;;6182339;23;20035;-83
2023/07/31 17:07:50;;;;;;;;;;;;;;;;;;6207000;23;19943;-83
2023/07/31 17:10:16;;;;;;;;;;;;;;;;;;6179842;23;19924;-83
2023/07/31 17:12:42;;;;;;;;;;;;;;;;;;6204854;23;20300;-83
2023/07/31 17:15:08;;;;;;;;;;;;;;;;;;6203619;23;19919;-83
2023/07/31 17:17:34;;;;;;;;;;;;;;;;;;6179670;23;20327;-83
2023/07/31 17:19:59;;;;;;;;;;;;;;;;;;6204615;23;19919;-83
2023/07/31 17:22:25;;;;;;;;;;;;;;;;;;6199406;23;20946;-83
2023/07/31 17:24:52;;;;;;;;;;;;;;;;;;6207023;23;19924;-83
2023/07/31 17:27:18;;;;;;;;;;;;;;;;;;6205189;23;20294;-83
2023/07/31 17:29:44;;;;;;;;;;;;;;;;;;6179691;23;19923;-83
2023/07/31 17:32:10;;;;;;;;;;;;;;;;;;6174092;23;19922;-83
2023/07/31 17:34:36;;;;;;;;;;;;;;;;;;6178876;23;19919;-83
2023/07/31 17:37:02;;;;;;;;;;;;;;;;;;6203418;23;20491;-83
2023/07/31 17:39:29;;;;;;;;;;;;;;;;;;6177311;23;20041;-83
2023/07/31 17:41:55;;;;;;;;;;;;;;;;;;6207400;23;19950;-82
2023/07/31 17:44:20;;;;;;;;;;;;;;;;;;6174823;23;19923;-83
2023/07/31 17:46:48;;;;;;;;;;;;;;;;;;6178831;23;19920;-84
2023/07/31 17:49:14;;;;;;;;;;;;;;;;;;6200586;23;20337;-88
2023/07/31 17:51:41;;;;;;;;;;;;;;;;;;6177774;23;19919;-87
2023/07/31 17:54:08;;;;;;;;;;;;;;;;;;6203982;23;19935;-88
2023/07/31 17:56:37;;;;;;;;;;;;;;;;;;6178294;23;20129;-88
2023/07/31 17:59:03;;;;;;;;;;;;;;;;;;6178428;23;20382;-88
2023/07/31 18:01:29;;;;;;;;;;;;;;;;;;6176145;23;19919;-87
2023/07/31 18:03:55;;;;;;;;;;;;;;;;;;6184333;23;19920;-88
2023/07/31 18:06:21;;;;;;;;;;;;;;;;;;6200758;23;19998;-89
2023/07/31 18:08:47;;;;;;;;;;;;;;;;;;6203554;23;20336;-88
2023/07/31 18:11:14;;;;;;;;;;;;;;;;;;6201910;23;19920;-88
2023/07/31 18:13:40;;;;;;;;;;;;;;;;;;6192678;23;19916;-88
2023/07/31 18:16:06;;;;;;;;;;;;;;;;;;6209750;23;19965;-88
2023/07/31 18:18:32;;;;;;;;;;;;;;;;;;6203097;23;19924;-88
2023/07/31 18:20:59;;;;;;;;;;;;;;;;;;6178701;23;19920;-89
2023/07/31 18:23:25;;;;;;;;;;;;;;;;;;6174466;23;19919;-88
2023/07/31 18:25:51;;;;;;;;;;;;;;;;;;6204731;23;19990;-89
2023/07/31 18:28:17;;;;;;;;;;;;;;;;;;6180394;23;19927;-89
2023/07/31 18:30:43;;;;;;;;;;;;;;;;;;6179844;23;19924;-90
2023/07/31 18:33:09;;;;;;;;;;;;;;;;;;6200095;23;19926;-88
2023/07/31 18:35:35;;;;;;;;;;;;;;;;;;6204283;23;19986;-89
2023/07/31 18:38:01;;;;;;;;;;;;;;;;;;6203131;23;19927;-89
2023/07/31 18:40:27;;;;;;;;;;;;;;;;;;6202459;23;20683;-89
2023/07/31 18:42:53;;;;;;;;;;;;;;;;;;6180499;23;19920;-89
2023/07/31 18:45:19;;;;;;;;;;;;;;;;;;6203558;23;19920;-88
2023/07/31 18:47:45;;;;;;;;;;;;;;;;;;6210967;23;19915;-89
2023/07/31 18:50:11;;;;;;;;;;;;;;;;;;6204781;23;19927;-90
2023/07/31 19:04:01;;;;;;;;;;;;;;;;;;5115086;27;19919;-83
2023/07/31 19:06:29;;;;;;;;;;;;;;;;;;4673942;28;10956524;-82
2023/07/31 19:08:59;;;;;;;;;;;;;;;;;;5061153;28;20336;-84
2023/07/31 19:17:46;;;;;;;;;;;;;;;;;;5058334;28;19926;-83
2023/07/31 19:20:31;;;;;;;;;;;;;;;;;;;;;
2023/07/31 19:23:17;;;;;;;;;;;;;;;;;;5061077;28;19940;-82
2023/07/31 19:35:25;;;;;;;;;;;;;;;;;;5084990;28;20001;-82
2023/07/31 19:38:15;;;;;;;;;;;;;;;;;;5003772;28;19929;-83
2023/07/31 19:47:10;;;;;;;;;;;;;;;;;;5085614;27;19965;-83
2023/07/31 20:14:15;;;;;;;;;;;;;;;;;;4936254;28;19930;-86
2023/07/31 20:20:15;;;;;;;;;;;;;;;;;;4911162;29;19931;-86
2023/07/31 20:31:41;;;;;;;;;;;;;;;;;;5032532;28;20302;-89
2023/07/31 20:34:11;;;;;;;;;;;;;;;;;;5022748;28;19936;-88
2023/07/31 20:36:37;;;;;;;;;;;;;;;;;;5006358;28;19931;-88
2023/07/31 20:39:05;;;;;;;;;;;;;;;;;;5022573;28;19924;-88
2023/07/31 20:41:31;;;;;;;;;;;;;;;;;;5023198;28;20011;-88
2023/07/31 20:43:57;;;;;;;;;;;;;;;;;;5008917;28;19924;-87
2023/07/31 20:46:23;;;;;;;;;;;;;;;;;;5032737;28;19935;-88
2023/07/31 20:48:49;;;;;;;;;;;;;;;;;;5023562;28;20002;-88
2023/07/31 20:51:15;;;;;;;;;;;;;;;;;;4999381;28;19931;-88
2023/07/31 20:53:41;;;;;;;;;;;;;;;;;;5046869;28;19924;-88